createdAt,value
2023-12-21T00:01:51.956Z,3.75
2023-12-21T00:04:19.796Z,3.79
2023-12-21T00:06:47.919Z,3.82
2023-12-21T00:09:15.633Z,3.84
2023-12-21T00:11:43.251Z,3.85
2023-12-21T00:14:11.566Z,3.84
2023-12-21T00:16:39.398Z,3.83
2023-12-21T00:19:07.297Z,3.83
2023-12-21T00:21:34.943Z,3.86
2023-12-21T00:24:02.587Z,3.86
2023-12-21T00:26:30.217Z,3.86
2023-12-21T00:28:57.807Z,3.83
2023-12-21T00:31:25.740Z,3.82
2023-12-21T00:33:53.437Z,3.84
2023-12-21T00:36:21.350Z,3.86
2023-12-21T00:38:49.063Z,3.87
2023-12-21T00:41:16.650Z,3.86
2023-12-21T00:43:44.263Z,3.85
2023-12-21T00:46:12.101Z,3.86
2023-12-21T00:48:39.876Z,3.88
2023-12-21T00:51:07.920Z,3.88
2023-12-21T00:53:36.013Z,3.87
2023-12-21T00:56:03.903Z,3.83
2023-12-21T00:58:31.625Z,3.80
2023-12-21T01:00:59.576Z,3.78
2023-12-21T01:03:27.284Z,3.78
2023-12-21T01:05:55.024Z,3.79
2023-12-21T01:08:23.716Z,3.76
2023-12-21T01:10:51.335Z,3.71
2023-12-21T01:13:18.951Z,3.67
2023-12-21T01:15:46.571Z,3.67
2023-12-21T01:18:14.346Z,3.69
2023-12-21T01:20:42.105Z,3.69
2023-12-21T01:23:09.752Z,3.66
2023-12-21T01:25:37.559Z,3.63
2023-12-21T01:28:05.605Z,3.63
2023-12-21T01:30:33.236Z,3.66
2023-12-21T01:33:01.408Z,3.66
2023-12-21T01:35:29.241Z,3.66
2023-12-21T01:37:57.096Z,3.64
2023-12-21T01:40:24.796Z,3.62
2023-12-21T01:42:52.501Z,3.62
2023-12-21T01:45:20.136Z,3.62
2023-12-21T01:47:48.640Z,3.60
2023-12-21T01:50:16.485Z,3.57
2023-12-21T01:52:44.421Z,3.57
2023-12-21T01:55:12.156Z,3.58
2023-12-21T01:57:39.991Z,3.60
2023-12-21T02:00:08.283Z,3.59
2023-12-21T02:02:36.149Z,3.57
2023-12-21T02:05:04.363Z,3.56
2023-12-21T02:07:32.393Z,3.57
2023-12-21T02:10:00.126Z,3.61
2023-12-21T02:12:27.839Z,3.63
2023-12-21T02:14:55.624Z,3.62
2023-12-21T02:17:23.265Z,3.62
2023-12-21T02:19:50.898Z,3.59
2023-12-21T02:22:19.014Z,3.61
2023-12-21T02:24:46.754Z,3.64
2023-12-21T02:27:14.371Z,3.66
2023-12-21T02:29:42.353Z,3.64
2023-12-21T02:32:10.194Z,3.62
2023-12-21T02:34:37.904Z,3.62
2023-12-21T02:37:05.960Z,3.64
2023-12-21T02:39:33.986Z,3.66
2023-12-21T02:42:01.600Z,3.66
2023-12-21T02:44:29.642Z,3.65
2023-12-21T02:46:59.670Z,3.64
2023-12-21T02:49:27.505Z,3.65
2023-12-21T02:51:56.435Z,3.69
2023-12-21T02:54:24.264Z,3.73
2023-12-21T02:56:51.852Z,3.73
2023-12-21T02:59:19.977Z,3.71
2023-12-21T03:01:47.908Z,3.72
2023-12-21T03:04:15.639Z,3.75
2023-12-21T03:06:44.724Z,3.77
2023-12-21T03:09:12.691Z,3.76
2023-12-21T03:11:40.320Z,3.75
2023-12-21T03:14:08.408Z,3.74
2023-12-21T03:16:36.249Z,3.77
2023-12-21T03:19:04.037Z,3.79
2023-12-21T03:21:31.769Z,3.79
2023-12-21T03:23:59.433Z,3.77
2023-12-21T03:26:27.071Z,3.76
2023-12-21T03:28:54.737Z,3.77
2023-12-21T03:31:22.753Z,3.77
2023-12-21T03:33:50.696Z,3.75
2023-12-21T03:36:18.611Z,3.74
2023-12-21T03:38:46.488Z,3.74
2023-12-21T03:41:14.193Z,3.75
2023-12-21T03:43:42.019Z,3.74
2023-12-21T03:46:10.947Z,3.72
2023-12-21T03:48:38.684Z,3.68
2023-12-21T03:51:06.340Z,3.69
2023-12-21T03:53:34.146Z,3.68
2023-12-21T03:56:01.805Z,3.66
2023-12-21T03:58:29.493Z,3.64
2023-12-21T04:00:57.196Z,3.63
2023-12-21T04:03:24.965Z,3.64
2023-12-21T04:05:54.818Z,3.64
2023-12-21T04:08:22.835Z,3.62
2023-12-21T04:10:50.475Z,3.60
2023-12-21T04:13:18.290Z,3.59
2023-12-21T04:15:45.944Z,3.61
2023-12-21T04:18:13.622Z,3.60
2023-12-21T04:20:41.327Z,3.58
2023-12-21T04:23:08.994Z,3.57
2023-12-21T04:25:36.734Z,3.60
2023-12-21T04:28:04.654Z,3.60
2023-12-21T04:30:32.748Z,3.59
2023-12-21T04:33:01.001Z,3.56
2023-12-21T04:35:28.787Z,3.56
2023-12-21T04:37:56.385Z,3.57
2023-12-21T04:40:24.066Z,3.55
2023-12-21T04:42:56.465Z,3.53
2023-12-21T04:45:24.613Z,3.49
2023-12-21T04:47:52.409Z,3.48
2023-12-21T04:50:20.611Z,3.48
2023-12-21T04:52:48.838Z,3.46
2023-12-21T04:55:16.746Z,3.45
2023-12-21T04:57:44.526Z,3.46
2023-12-21T05:00:12.834Z,3.48
2023-12-21T05:02:40.693Z,3.47
2023-12-21T05:05:08.352Z,3.44
2023-12-21T05:07:36.005Z,3.42
2023-12-21T05:10:04.291Z,3.43
2023-12-21T05:12:31.936Z,3.42
2023-12-21T05:14:59.593Z,3.41
2023-12-21T05:17:27.789Z,3.39
2023-12-21T05:19:55.529Z,3.39
2023-12-21T05:22:23.588Z,3.42
2023-12-21T05:24:51.222Z,3.44
2023-12-21T05:27:18.824Z,3.44
2023-12-21T05:29:46.506Z,3.41
2023-12-21T05:32:14.183Z,3.41
2023-12-21T05:34:43.490Z,3.42
2023-12-21T05:37:11.911Z,3.42
2023-12-21T05:39:40.418Z,3.40
2023-12-21T05:42:08.105Z,3.38
2023-12-21T05:44:35.899Z,3.39
2023-12-21T05:47:03.674Z,3.40
2023-12-21T05:49:31.364Z,3.38
2023-12-21T05:52:00.818Z,3.35
2023-12-21T05:54:28.785Z,3.34
2023-12-21T05:56:56.431Z,3.33
2023-12-21T05:59:24.033Z,3.32
2023-12-21T06:01:51.750Z,3.28
2023-12-21T06:04:19.685Z,3.26
2023-12-21T06:06:47.907Z,3.26
2023-12-21T06:09:15.676Z,3.26
2023-12-21T06:11:43.288Z,3.24
2023-12-21T06:14:10.877Z,3.23
2023-12-21T06:16:38.937Z,3.24
2023-12-21T06:19:11.407Z,3.23
2023-12-21T06:21:39.804Z,3.21
2023-12-21T06:24:07.840Z,3.18
2023-12-21T06:26:42.096Z,3.15
2023-12-21T06:29:09.966Z,3.15
2023-12-21T06:31:37.933Z,3.14
2023-12-21T06:34:06.003Z,3.10
2023-12-21T06:36:33.702Z,3.07
2023-12-21T06:39:01.277Z,3.07
2023-12-21T06:41:29.685Z,3.07
2023-12-21T06:43:57.297Z,3.03
2023-12-21T06:46:25.231Z,3.00
2023-12-21T06:48:52.964Z,2.99
2023-12-21T06:51:20.681Z,2.99
2023-12-21T06:53:48.435Z,2.97
2023-12-21T06:56:28.903Z,2.94
2023-12-21T06:59:03.693Z,2.89
2023-12-21T07:01:31.915Z,2.87
2023-12-21T07:03:59.838Z,2.84
2023-12-21T07:06:27.535Z,2.79
2023-12-21T07:08:55.417Z,2.75
2023-12-21T07:11:24.231Z,2.73
2023-12-21T07:13:52.098Z,2.73
2023-12-21T07:16:19.992Z,2.71
2023-12-21T07:18:47.728Z,2.67
2023-12-21T07:21:15.370Z,2.67
2023-12-21T07:23:43.056Z,2.70
2023-12-21T07:26:11.940Z,2.71
2023-12-21T07:28:41.675Z,2.71
2023-12-21T07:31:11.136Z,2.73
2023-12-21T07:33:38.916Z,2.80
2023-12-21T07:36:08.620Z,2.84
2023-12-21T07:38:37.441Z,2.87
2023-12-21T07:41:05.041Z,2.89
2023-12-21T07:43:32.724Z,2.93
2023-12-21T07:46:00.619Z,2.97
2023-12-21T07:48:28.350Z,2.98
2023-12-21T07:50:56.187Z,2.97
2023-12-21T07:53:23.984Z,2.96
2023-12-21T07:55:51.655Z,2.98
2023-12-21T07:58:19.404Z,3.00
2023-12-21T08:00:47.960Z,3.00
2023-12-21T08:03:15.623Z,3.01
2023-12-21T08:05:43.660Z,3.06
2023-12-21T08:08:11.403Z,3.13
2023-12-21T08:10:39.028Z,3.20
2023-12-21T08:13:09.372Z,3.23
2023-12-21T08:15:37.097Z,3.26
2023-12-21T08:18:05.940Z,3.31
2023-12-21T08:20:36.319Z,3.33
2023-12-21T08:23:04.704Z,3.33
2023-12-21T08:25:32.897Z,3.33
2023-12-21T08:28:00.853Z,3.37
2023-12-21T08:30:28.900Z,3.40
2023-12-21T08:32:56.781Z,3.42
2023-12-21T08:35:24.459Z,3.43
2023-12-21T08:37:52.122Z,3.47
2023-12-21T08:40:19.826Z,3.52
2023-12-21T08:42:47.831Z,3.54
2023-12-21T08:45:15.867Z,3.53
2023-12-21T08:47:43.733Z,3.57
2023-12-21T08:50:11.774Z,3.62
2023-12-21T08:52:40.671Z,3.67
2023-12-21T08:55:09.690Z,3.73
2023-12-21T08:57:37.978Z,3.79
2023-12-21T09:00:11.755Z,3.87
2023-12-21T09:02:39.966Z,3.93
2023-12-21T09:05:08.040Z,3.99
2023-12-21T09:07:35.936Z,4.02
2023-12-21T09:10:05.132Z,4.07
2023-12-21T09:12:32.857Z,4.12
2023-12-21T09:15:00.774Z,4.14
2023-12-21T09:17:28.576Z,4.15
2023-12-21T09:19:56.366Z,4.19
2023-12-21T09:22:24.460Z,4.23
2023-12-21T09:24:52.208Z,4.25
2023-12-21T09:27:19.878Z,4.23
2023-12-21T09:29:47.996Z,4.23
2023-12-21T09:32:15.753Z,4.26
2023-12-21T09:34:46.658Z,4.28
2023-12-21T09:37:15.604Z,4.27
2023-12-21T09:39:44.540Z,4.29
2023-12-21T09:42:14.995Z,4.32
2023-12-21T09:44:48.259Z,4.37
2023-12-21T09:47:17.402Z,4.41
2023-12-21T09:49:45.746Z,4.45
2023-12-21T09:52:13.780Z,4.52
2023-12-21T09:54:41.692Z,4.60
2023-12-21T09:57:09.578Z,4.65
2023-12-21T09:59:37.803Z,4.65
2023-12-21T10:02:13.491Z,4.64
2023-12-21T10:04:44.769Z,4.66
2023-12-21T10:07:12.645Z,4.65
2023-12-21T10:09:40.278Z,4.65
2023-12-21T10:12:08.566Z,4.64
2023-12-21T10:14:36.355Z,4.65
2023-12-21T10:17:06.649Z,4.65
2023-12-21T10:19:34.480Z,4.64
2023-12-21T10:22:02.561Z,4.63
2023-12-21T10:24:32.057Z,4.64
2023-12-21T10:26:59.731Z,4.65
2023-12-21T10:29:27.517Z,4.65
2023-12-21T10:31:55.802Z,4.63
2023-12-21T10:34:23.928Z,4.64
2023-12-21T10:36:51.798Z,4.66
2023-12-21T10:39:19.804Z,4.66
2023-12-21T10:41:47.773Z,4.66
2023-12-21T10:44:16.798Z,4.70
2023-12-21T10:46:45.255Z,4.74
2023-12-21T10:49:13.833Z,4.77
2023-12-21T10:51:45.215Z,4.78
2023-12-21T10:54:16.194Z,4.79
2023-12-21T10:56:43.877Z,4.81
2023-12-21T10:59:12.413Z,4.81
2023-12-21T11:01:40.442Z,4.81
2023-12-21T11:04:09.490Z,4.81
2023-12-21T11:06:37.145Z,4.83
2023-12-21T11:09:07.962Z,4.83
2023-12-21T11:11:36.064Z,4.80
2023-12-21T11:14:03.696Z,4.80
2023-12-21T11:16:42.710Z,4.81
2023-12-21T11:19:11.668Z,4.79
2023-12-21T11:21:39.515Z,4.73
2023-12-21T11:24:07.176Z,4.70
2023-12-21T11:26:34.904Z,4.71
2023-12-21T11:29:06.408Z,4.69
2023-12-21T11:31:41.256Z,4.66
2023-12-21T11:34:23.328Z,4.64
2023-12-21T11:36:51.574Z,4.64
2023-12-21T11:39:20.251Z,4.63
2023-12-21T11:42:01.063Z,4.61
2023-12-21T11:44:36.931Z,4.62
2023-12-21T11:47:08.392Z,4.62
2023-12-21T11:49:36.354Z,4.59
2023-12-21T11:52:04.406Z,4.57
2023-12-21T11:54:32.113Z,4.56
2023-12-21T11:57:12.711Z,4.55
2023-12-21T11:59:40.735Z,4.53
2023-12-21T12:02:08.992Z,4.50
2023-12-21T12:04:36.852Z,4.49
2023-12-21T12:07:05.122Z,4.50
2023-12-21T12:09:32.846Z,4.47
2023-12-21T12:12:01.116Z,4.42
2023-12-21T12:14:28.810Z,4.40
2023-12-21T12:16:57.000Z,4.39
2023-12-21T12:19:30.934Z,4.38
2023-12-21T12:21:58.771Z,4.34
2023-12-21T12:24:26.379Z,4.34
2023-12-21T12:26:54.038Z,4.35
2023-12-21T12:29:21.757Z,4.36
2023-12-21T12:31:49.876Z,4.35
2023-12-21T12:34:17.866Z,4.35
2023-12-21T12:36:45.578Z,4.36
2023-12-21T12:39:13.167Z,4.37
2023-12-21T12:41:41.358Z,4.35
2023-12-21T12:44:10.142Z,4.35
2023-12-21T12:46:38.002Z,4.35
2023-12-21T12:49:06.078Z,4.33
2023-12-21T12:51:33.835Z,4.30
2023-12-21T12:54:01.519Z,4.30
2023-12-21T12:56:29.893Z,4.29
2023-12-21T12:58:59.612Z,4.27
2023-12-21T13:01:29.615Z,4.25
2023-12-21T13:03:59.197Z,4.26
2023-12-21T13:06:27.196Z,4.25
2023-12-21T13:08:54.925Z,4.22
2023-12-21T13:11:23.601Z,4.20
2023-12-21T13:13:51.349Z,4.19
2023-12-21T13:16:20.196Z,4.19
2023-12-21T13:18:48.705Z,4.16
2023-12-21T13:21:16.935Z,4.13
2023-12-21T13:23:44.762Z,4.14
2023-12-21T13:26:14.118Z,4.13
2023-12-21T13:28:45.050Z,4.11
2023-12-21T13:31:12.911Z,4.07
2023-12-21T13:33:40.912Z,4.06
2023-12-21T13:36:08.910Z,4.05
2023-12-21T13:38:38.882Z,4.02
2023-12-21T13:41:10.176Z,4.01
2023-12-21T13:43:38.313Z,3.99
2023-12-21T13:46:06.158Z,3.97
2023-12-21T13:48:34.109Z,3.95
2023-12-21T13:51:02.069Z,3.95
2023-12-21T13:53:29.876Z,3.95
2023-12-21T13:55:57.772Z,3.91
2023-12-21T13:58:26.053Z,3.90
2023-12-21T14:00:54.429Z,3.92
2023-12-21T14:03:22.187Z,3.92
2023-12-21T14:05:50.040Z,3.90
2023-12-21T14:08:19.106Z,3.89
2023-12-21T14:10:47.719Z,3.91
2023-12-21T14:13:15.709Z,3.91
2023-12-21T14:15:43.298Z,3.91
2023-12-21T14:18:11.032Z,3.92
2023-12-21T14:20:38.764Z,3.94
2023-12-21T14:23:06.457Z,3.95
2023-12-21T14:25:34.671Z,3.95
2023-12-21T14:28:02.353Z,3.96
2023-12-21T14:30:29.935Z,4.00
2023-12-21T14:32:57.767Z,4.03
2023-12-21T14:35:25.746Z,4.04
2023-12-21T14:37:54.164Z,4.05
2023-12-21T14:40:22.029Z,4.07
2023-12-21T14:42:49.757Z,4.09
2023-12-21T14:45:17.699Z,4.10
2023-12-21T14:47:45.697Z,4.10
2023-12-21T14:50:14.147Z,4.11
2023-12-21T14:52:45.567Z,4.13
2023-12-21T14:55:13.559Z,4.14
2023-12-21T14:57:41.504Z,4.13
2023-12-21T15:00:12.521Z,4.14
2023-12-21T15:02:40.345Z,4.16
2023-12-21T15:05:09.207Z,4.18
2023-12-21T15:07:37.443Z,4.18
2023-12-21T15:10:06.638Z,4.18
2023-12-21T15:12:36.566Z,4.19
2023-12-21T15:15:04.734Z,4.20
2023-12-21T15:17:32.526Z,4.20
2023-12-21T15:20:00.512Z,4.20
2023-12-21T15:22:28.343Z,4.21
2023-12-21T15:24:56.577Z,4.24
2023-12-21T15:27:24.556Z,4.24
2023-12-21T15:29:52.141Z,4.24
2023-12-21T15:32:19.835Z,4.27
2023-12-21T15:34:47.746Z,4.28
2023-12-21T15:37:15.424Z,4.28
2023-12-21T15:39:45.325Z,4.29
2023-12-21T15:42:13.190Z,4.30
2023-12-21T15:44:40.797Z,4.32
2023-12-21T15:47:08.734Z,4.31
2023-12-21T15:49:36.433Z,4.32
2023-12-21T15:52:06.983Z,4.34
2023-12-21T15:54:36.227Z,4.37
2023-12-21T15:57:04.330Z,4.38
2023-12-21T15:59:35.793Z,4.39
2023-12-21T16:02:04.207Z,4.41
2023-12-21T16:04:36.600Z,4.43
2023-12-21T16:07:04.706Z,4.45
2023-12-21T16:09:32.344Z,4.45
2023-12-21T16:12:00.089Z,4.47
2023-12-21T16:14:27.753Z,4.50
2023-12-21T16:16:55.491Z,4.52
2023-12-21T16:19:23.332Z,4.53
2023-12-21T16:21:51.186Z,4.54
2023-12-21T16:24:18.824Z,4.56
2023-12-21T16:26:46.568Z,4.58
2023-12-21T16:29:14.601Z,4.59
2023-12-21T16:31:44.552Z,4.60
2023-12-21T16:34:12.310Z,4.62
2023-12-21T16:36:40.130Z,4.65
2023-12-21T16:39:08.604Z,4.66
2023-12-21T16:41:36.338Z,4.67
2023-12-21T16:44:04.171Z,4.69
2023-12-21T16:46:31.959Z,4.73
2023-12-21T16:48:59.635Z,4.75
2023-12-21T16:51:27.467Z,4.76
2023-12-21T16:53:55.087Z,4.78
2023-12-21T16:56:23.086Z,4.81
2023-12-21T16:58:51.982Z,4.83
2023-12-21T17:01:19.813Z,4.84
2023-12-21T17:03:51.207Z,4.84
2023-12-21T17:06:20.700Z,4.85
2023-12-21T17:08:48.401Z,4.86
2023-12-21T17:11:16.020Z,4.86
2023-12-21T17:13:43.821Z,4.87
2023-12-21T17:16:11.618Z,4.88
2023-12-21T17:18:39.450Z,4.89
2023-12-21T17:21:07.189Z,4.87
2023-12-21T17:23:34.785Z,4.88
2023-12-21T17:26:02.602Z,4.89
2023-12-21T17:28:31.020Z,4.89
2023-12-21T17:30:58.671Z,4.87
2023-12-21T17:33:27.637Z,4.88
2023-12-21T17:35:56.886Z,4.90
2023-12-21T17:38:24.579Z,4.90
2023-12-21T17:40:54.964Z,4.89
2023-12-21T17:43:26.801Z,4.88
2023-12-21T17:45:56.593Z,4.90
2023-12-21T17:48:24.417Z,4.92
2023-12-21T17:50:52.521Z,4.92
2023-12-21T17:53:20.289Z,4.91
2023-12-21T17:55:47.982Z,4.92
2023-12-21T17:58:18.775Z,4.94
2023-12-21T18:00:46.788Z,4.93
2023-12-21T18:03:14.882Z,4.93
2023-12-21T18:05:42.800Z,4.95
2023-12-21T18:08:12.721Z,4.96
2023-12-21T18:10:40.484Z,4.95
2023-12-21T18:13:08.400Z,4.93
2023-12-21T18:15:36.360Z,4.94
2023-12-21T18:18:04.564Z,4.95
2023-12-21T18:20:32.365Z,4.95
2023-12-21T18:23:00.168Z,4.94
2023-12-21T18:25:28.208Z,4.96
2023-12-21T18:27:56.108Z,4.97
2023-12-21T18:30:23.981Z,4.98
2023-12-21T18:32:51.626Z,4.99
2023-12-21T18:35:19.397Z,5.01
2023-12-21T18:37:47.345Z,5.02
2023-12-21T18:40:15.284Z,5.04
2023-12-21T18:42:43.377Z,5.04
2023-12-21T18:45:11.311Z,5.04
2023-12-21T18:47:38.914Z,5.07
2023-12-21T18:50:07.331Z,5.07
2023-12-21T18:52:35.105Z,5.07
2023-12-21T18:55:02.805Z,5.08
2023-12-21T18:57:32.412Z,5.10
2023-12-21T19:00:00.487Z,5.12
2023-12-21T19:02:28.552Z,5.13
2023-12-21T19:04:56.456Z,5.14
2023-12-21T19:07:24.286Z,5.18
2023-12-21T19:09:51.895Z,5.19
2023-12-21T19:12:21.920Z,5.19
2023-12-21T19:14:49.698Z,5.21
2023-12-21T19:17:17.458Z,5.23
2023-12-21T19:19:45.382Z,5.23
2023-12-21T19:22:13.039Z,5.24
2023-12-21T19:24:40.720Z,5.26
2023-12-21T19:27:08.660Z,5.29
2023-12-21T19:29:36.756Z,5.29
2023-12-21T19:32:05.361Z,5.30
2023-12-21T19:34:33.138Z,5.33
2023-12-21T19:37:01.204Z,5.37
2023-12-21T19:39:28.788Z,5.38
2023-12-21T19:41:56.956Z,5.39
2023-12-21T19:44:24.557Z,5.42
2023-12-21T19:46:52.147Z,5.44
2023-12-21T19:49:20.538Z,5.44
2023-12-21T19:51:48.315Z,5.46
2023-12-21T19:54:15.921Z,5.49
2023-12-21T19:56:46.340Z,5.52
2023-12-21T19:59:19.962Z,5.52
2023-12-21T20:01:49.347Z,5.53
2023-12-21T20:04:18.610Z,5.56
2023-12-21T20:06:46.702Z,5.59
2023-12-21T20:09:17.358Z,5.58
2023-12-21T20:11:45.206Z,5.58
2023-12-21T20:14:12.939Z,5.58
2023-12-21T20:16:40.777Z,5.58
2023-12-21T20:19:09.036Z,5.57
2023-12-21T20:21:36.787Z,5.58
2023-12-21T20:24:04.958Z,5.61
2023-12-21T20:26:32.864Z,5.62
2023-12-21T20:29:00.655Z,5.61
2023-12-21T20:31:29.507Z,5.61
2023-12-21T20:33:57.525Z,5.62
2023-12-21T20:36:25.246Z,5.63
2023-12-21T20:38:53.068Z,5.62
2023-12-21T20:41:21.197Z,5.61
2023-12-21T20:43:49.703Z,5.61
2023-12-21T20:46:17.835Z,5.60
2023-12-21T20:48:45.779Z,5.57
2023-12-21T20:51:13.504Z,5.55
2023-12-21T20:53:41.152Z,5.56
2023-12-21T20:56:09.101Z,5.58
2023-12-21T20:58:36.737Z,5.60
2023-12-21T21:01:07.121Z,5.59
2023-12-21T21:03:38.476Z,5.58
2023-12-21T21:06:06.746Z,5.59
2023-12-21T21:08:34.333Z,5.58
2023-12-21T21:11:02.113Z,5.56
2023-12-21T21:13:29.945Z,5.53
2023-12-21T21:15:57.577Z,5.52
2023-12-21T21:18:25.869Z,5.53
2023-12-21T21:20:53.610Z,5.52
2023-12-21T21:23:21.292Z,5.49
2023-12-21T21:25:49.239Z,5.48
2023-12-21T21:28:17.108Z,5.49
2023-12-21T21:30:56.816Z,5.49
2023-12-21T21:33:28.829Z,5.46
2023-12-21T21:35:56.742Z,5.41
2023-12-21T21:38:24.352Z,5.38
2023-12-21T21:40:53.809Z,5.36
2023-12-21T21:43:21.767Z,5.34
2023-12-21T21:45:49.405Z,5.29
2023-12-21T21:48:17.665Z,5.28
2023-12-21T21:50:45.885Z,5.26
2023-12-21T21:53:13.728Z,5.23
2023-12-21T21:55:41.821Z,5.20
2023-12-21T21:58:09.445Z,5.21
2023-12-21T22:00:37.123Z,5.20
2023-12-21T22:03:07.251Z,5.18
2023-12-21T22:05:35.327Z,5.16
2023-12-21T22:08:03.211Z,5.17
2023-12-21T22:10:31.388Z,5.16
2023-12-21T22:12:58.994Z,5.14
2023-12-21T22:15:26.588Z,5.15
2023-12-21T22:17:54.246Z,5.15
2023-12-21T22:20:21.872Z,5.12
2023-12-21T22:22:49.600Z,5.11
2023-12-21T22:25:17.454Z,5.12
2023-12-21T22:27:45.130Z,5.10
2023-12-21T22:30:13.170Z,5.09
2023-12-21T22:32:40.918Z,5.08
2023-12-21T22:35:10.370Z,5.09
2023-12-21T22:37:38.477Z,5.09
2023-12-21T22:40:08.008Z,5.06
2023-12-21T22:42:35.713Z,5.06
2023-12-21T22:45:03.952Z,5.07
2023-12-21T22:47:31.899Z,5.06
2023-12-21T22:50:00.851Z,5.04
2023-12-21T22:52:28.781Z,5.03
2023-12-21T22:54:56.388Z,5.04
2023-12-21T22:57:24.009Z,5.01
2023-12-21T22:59:51.582Z,4.97
2023-12-21T23:02:19.984Z,4.96
2023-12-21T23:04:47.698Z,4.96
2023-12-21T23:07:15.566Z,4.94
2023-12-21T23:09:43.375Z,4.91
2023-12-21T23:12:10.968Z,4.91
2023-12-21T23:14:38.592Z,4.90
2023-12-21T23:17:06.222Z,4.86
2023-12-21T23:19:34.062Z,4.84
2023-12-21T23:22:01.846Z,4.83
2023-12-21T23:24:29.687Z,4.81
2023-12-21T23:26:57.428Z,4.77
2023-12-21T23:29:25.779Z,4.74
2023-12-21T23:31:53.543Z,4.73
2023-12-21T23:34:21.502Z,4.72
2023-12-21T23:36:49.124Z,4.69
2023-12-21T23:39:16.785Z,4.65
2023-12-21T23:41:44.621Z,4.64
2023-12-21T23:44:12.244Z,4.64
2023-12-21T23:46:39.862Z,4.64
2023-12-21T23:49:07.926Z,4.61
2023-12-21T23:51:38.518Z,4.60
2023-12-21T23:54:06.137Z,4.60
2023-12-21T23:56:33.742Z,4.61
2023-12-21T23:59:01.379Z,4.61
